Weather at Bunyip Airport

Public forecast

Using degrees Celsius for public forecast. Weather courtesy of forecast.io.

Closest aviation weather report (METAR) to Bunyip Airport

Closest report is Melbourne International Airport, 47.7 nm (88.3 km) WNW.

2024/07/21 06:30 (retrieved 12 minutes ago)

YMML 210630Z 01015KT 9999 FEW031 SCT066 BKN093 12/08 Q1018 RF000/0000

Closest aviation forecast (TAF) to Bunyip Airport

Closest forecast is Melbourne International Airport, 47.7 nm (88.3 km) WNW.

2024/07/21 06:00 (retrieved 42 minutes ago)

TAF YMML 210510Z 2106/2212 01015KT 9999 SCT045 FM212100 01015KT 9999 -SHRA SCT045 FM220200 34015G25KT 9999 NSW FEW030 SCT050 FM220600 01012KT 9999 FEW030